Time;durP1;ratioP1;P1;durP2;ratioP2;P2;SDS_P1;SDS_P2;PMS_P1;PMS_P2;Temp;Humidity;BMP_temperature;BMP_pressure;BME280_temperature;BME280_humidity;BME280_pressure;Samples;Min_cycle;Max_cycle;Signal;HPM_P1;HPM_P2
2021/03/31 00:02:24;;;;;;;10.00;5.63;;;9.60;11.90;11.10;101578.00;;;;5031616;28;20494;-80
2021/03/31 00:04:52;;;;;;;6.70;5.60;;;9.50;11.60;11.10;101581.00;;;;5032108;28;20482;-80
2021/03/31 00:07:19;;;;;;;8.87;6.43;;;9.50;11.30;11.10;101578.00;;;;5016212;28;20506;-81
2021/03/31 00:09:49;;;;;;;11.90;6.50;;;9.50;12.00;52.70;161456.00;;;;5017124;28;20472;-80
2021/03/31 00:12:16;;;;;;;12.50;6.20;;;9.50;12.70;11.00;101582.00;;;;5033184;28;20468;-80
2021/03/31 00:14:43;;;;;;;17.20;6.70;;;9.50;12.90;11.00;101563.00;;;;5015476;28;20524;-80
2021/03/31 00:17:11;;;;;;;8.43;5.60;;;9.50;13.00;11.00;101575.00;;;;5017481;28;20472;-80
2021/03/31 00:19:38;;;;;;;13.90;6.40;;;9.60;13.80;11.00;101549.00;;;;5016161;28;20442;-81
2021/03/31 00:22:06;;;;;;;11.50;5.80;;;9.50;14.00;11.00;101585.00;;;;5017508;28;20489;-84
2021/03/31 00:24:33;;;;;;;11.70;6.30;;;9.50;14.20;11.00;101553.00;;;;5016950;28;20581;-80
2021/03/31 00:27:02;;;;;;;16.07;6.57;;;9.50;14.10;10.90;101570.00;;;;5017078;28;20472;-80
2021/03/31 00:29:29;;;;;;;9.10;5.53;;;9.40;14.10;10.90;101565.00;;;;5016792;28;20464;-80
2021/03/31 00:31:57;;;;;;;20.23;5.67;;;9.30;14.70;217.30;161364.00;;;;5015239;28;20505;-83
2021/03/31 00:34:24;;;;;;;7.83;6.00;;;9.30;15.70;10.80;101554.00;;;;5016413;28;20511;-81
2021/03/31 00:36:51;;;;;;;8.13;5.53;;;9.30;15.30;217.30;161289.00;;;;5006402;28;20527;-80
2021/03/31 00:39:19;;;;;;;9.20;5.87;;;9.20;15.60;10.70;101560.00;;;;5030739;28;20464;-80
2021/03/31 00:41:46;;;;;;;20.13;7.73;;;9.30;15.80;10.70;101566.00;;;;5017695;28;21009;-83
2021/03/31 00:44:19;;;;;;;9.50;5.63;;;9.20;16.60;10.70;101555.00;;;;5017194;28;20539;-80
2021/03/31 00:46:46;;;;;;;8.97;5.80;;;9.20;16.70;10.70;101552.00;;;;5031229;28;20496;-81
2021/03/31 00:49:14;;;;;;;9.17;5.37;;;9.20;16.30;10.60;101555.00;;;;5017551;28;20473;-82
2021/03/31 00:51:41;;;;;;;8.43;5.30;;;9.20;15.90;10.60;101558.00;;;;5018399;28;20474;-83
2021/03/31 00:54:09;;;;;;;8.70;6.10;;;9.30;16.00;10.60;101546.00;;;;5019667;28;20587;-80
2021/03/31 00:56:37;;;;;;;7.90;6.10;;;9.20;16.10;10.60;101556.00;;;;5018018;28;20520;-84
2021/03/31 00:59:04;;;;;;;8.83;5.67;;;9.10;16.40;10.60;101548.00;;;;5018720;28;20475;-80
2021/03/31 01:01:32;;;;;;;8.50;5.60;;;9.20;17.10;10.60;101547.00;;;;5017634;28;20476;-82
2021/03/31 01:04:00;;;;;;;8.73;6.03;;;9.20;17.30;10.60;101547.00;;;;5019577;28;20465;-80
2021/03/31 01:06:27;;;;;;;7.07;5.80;;;9.20;17.30;10.60;101551.00;;;;5020473;28;20500;-81
2021/03/31 01:08:55;;;;;;;10.20;6.20;;;9.30;17.40;10.60;101540.00;;;;5020763;28;20449;-80
2021/03/31 01:11:32;;;;;;;12.17;6.50;;;9.30;17.50;10.60;101514.00;;;;5026792;28;20474;-85
2021/03/31 01:14:07;;;;;;;10.77;6.10;;;9.20;16.90;10.50;101524.00;;;;5031929;28;20472;-85
2021/03/31 01:16:42;;;;;;;8.90;6.37;;;9.20;17.00;10.50;101521.00;;;;5059271;28;20562;-80
2021/03/31 01:19:51;;;;;;;6.67;5.70;;;9.10;17.60;10.40;101525.00;;;;5020010;28;20456;-81
2021/03/31 01:23:04;;;;;;;8.03;5.70;;;9.00;17.60;10.40;101517.00;;;;5012903;28;20497;-80
2021/03/31 01:25:35;;;;;;;10.83;6.40;;;9.10;18.10;10.30;101495.00;;;;5019912;28;20449;-85
2021/03/31 01:28:49;;;;;;;9.50;5.77;;;8.90;18.50;10.30;101517.00;;;;5023472;28;20450;-81
2021/03/31 01:31:34;;;;;;;11.87;6.33;;;8.80;19.30;10.20;101525.00;;;;5033681;28;20837;-81
2021/03/31 01:34:36;;;;;;;13.97;6.70;;;8.70;19.70;10.10;101527.00;;;;5017031;28;20841;-81
2021/03/31 01:37:11;;;;;;;11.77;6.20;;;8.70;20.00;10.10;101524.00;;;;5031055;28;20503;-84
2021/03/31 01:39:45;;;;;;;13.83;6.27;;;8.60;20.20;10.10;101525.00;;;;5006794;28;20457;-81
2021/03/31 01:42:15;;;;;;;8.20;5.83;;;8.60;20.20;10.10;101514.00;;;;5030874;28;20500;-80
2021/03/31 01:44:45;;;;;;;8.67;5.63;;;8.70;20.10;10.10;101518.00;;;;5016262;28;20487;-81
2021/03/31 01:47:15;;;;;;;13.63;6.60;;;8.70;20.00;10.10;101504.00;;;;5016218;28;20489;-80
2021/03/31 01:49:43;;;;;;;14.00;6.50;;;8.70;20.00;10.10;101327.00;;;;5017215;28;20544;-81
2021/03/31 01:52:13;;;;;;;12.83;7.03;;;8.70;20.20;10.10;101501.00;;;;5030553;28;20476;-82
2021/03/31 01:54:45;;;;;;;16.13;6.80;;;8.70;20.90;10.00;68470.00;;;;5031109;28;20473;-81
2021/03/31 01:57:14;;;;;;;14.50;6.57;;;8.50;21.40;9.90;101491.00;;;;5020926;28;20452;-80
2021/03/31 01:59:43;;;;;;;14.27;6.70;;;8.30;22.50;9.90;101505.00;;;;5032699;28;20548;-80
2021/03/31 02:02:13;;;;;;;8.43;5.70;;;8.20;23.10;9.80;101504.00;;;;5017006;28;20461;-81
2021/03/31 02:04:43;;;;;;;13.27;6.57;;;8.10;23.20;9.60;101504.00;;;;5018150;28;20499;-83
2021/03/31 02:07:12;;;;;;;10.00;5.20;;;8.10;23.50;9.70;101497.00;;;;5027627;28;20510;-80
2021/03/31 02:09:46;;;;;;;7.33;5.70;;;8.10;23.90;9.70;101494.00;;;;5038286;28;20869;-80
2021/03/31 02:12:15;;;;;;;11.43;6.30;;;8.20;23.90;9.70;101494.00;;;;5021301;28;20488;-80
2021/03/31 02:14:46;;;;;;;11.20;5.93;;;8.30;23.90;9.80;101501.00;;;;5025314;28;20519;-80
2021/03/31 02:17:15;;;;;;;13.53;5.50;;;8.50;23.70;9.80;101486.00;;;;5029222;28;20511;-80
2021/03/31 02:19:46;;;;;;;11.53;5.93;;;8.40;23.60;9.80;101484.00;;;;5035150;28;20446;-81
2021/03/31 02:22:15;;;;;;;12.93;7.30;;;8.40;23.80;9.80;101460.00;;;;5048183;28;20452;-82
2021/03/31 02:24:45;;;;;;;18.00;6.87;;;8.40;23.60;9.70;101479.00;;;;5034095;28;21024;-81
2021/03/31 02:27:13;;;;;;;12.40;6.10;;;8.40;23.50;9.70;101463.00;;;;5033426;28;20442;-82
2021/03/31 02:29:44;;;;;;;9.60;6.13;;;8.40;23.40;9.70;101471.00;;;;5030932;28;20488;-84
2021/03/31 02:32:13;;;;;;;9.00;6.17;;;8.30;23.50;9.70;101466.00;;;;5057300;28;20497;-83
2021/03/31 02:34:42;;;;;;;11.07;6.33;;;8.10;24.20;9.60;101469.00;;;;5043123;28;20993;-79
2021/03/31 02:37:13;;;;;;;12.83;6.33;;;8.00;25.20;9.40;101467.00;;;;5033760;28;20449;-83
2021/03/31 02:39:47;;;;;;;9.07;6.40;;;7.70;26.00;9.40;101461.00;;;;5042778;28;20489;-83
2021/03/31 02:42:17;;;;;;;9.40;6.27;;;7.60;26.50;9.30;101462.00;;;;5046643;28;20512;-85
2021/03/31 02:44:50;;;;;;;7.97;6.30;;;7.60;26.80;9.30;101451.00;;;;5045565;28;20446;-81
2021/03/31 02:47:24;;;;;;;14.87;6.67;;;7.60;26.60;9.20;101456.00;;;;5043292;28;20472;-84
2021/03/31 02:49:57;;;;;;;8.30;6.30;;;7.60;26.60;9.20;101442.00;;;;5046651;28;20449;-83
2021/03/31 02:52:27;;;;;;;9.90;6.07;;;7.70;27.00;217.30;160672.00;;;;5047884;28;20457;-83
2021/03/31 02:54:55;;;;;;;12.60;6.10;;;7.70;26.10;9.20;68275.00;;;;5044778;28;20521;-81
2021/03/31 02:57:23;;;;;;;10.53;5.10;;;7.80;25.50;9.30;101433.00;;;;5057650;28;20454;-81
2021/03/31 02:59:51;;;;;;;10.90;6.57;;;7.80;26.30;9.30;101455.00;;;;5032710;28;20569;-84
2021/03/31 03:02:20;;;;;;;6.77;5.40;;;7.80;27.00;9.20;101445.00;;;;5035035;28;20462;-85
2021/03/31 03:04:48;;;;;;;9.63;5.70;;;7.70;27.00;9.20;101445.00;;;;5051086;28;20448;-84
2021/03/31 03:07:17;;;;;;;10.00;6.37;;;7.60;27.20;9.20;101444.00;;;;5043235;28;20448;-84
2021/03/31 03:09:48;;;;;;;12.17;6.17;;;7.70;27.50;9.20;101431.00;;;;5039879;28;20453;-80
2021/03/31 03:12:17;;;;;;;18.43;6.77;;;7.70;27.30;9.20;101446.00;;;;5023681;28;20485;-80
2021/03/31 03:14:48;;;;;;;13.47;8.87;;;7.70;27.20;9.20;101429.00;;;;5026257;28;20572;-80
2021/03/31 03:17:16;;;;;;;16.40;8.67;;;7.70;27.30;9.20;101428.00;;;;5024371;28;20450;-80
2021/03/31 03:19:45;;;;;;;13.37;7.73;;;7.80;27.80;9.20;101418.00;;;;5021605;28;20512;-81
2021/03/31 03:22:13;;;;;;;12.07;7.20;;;7.70;27.30;217.30;160621.00;;;;5020099;28;22434;-81
2021/03/31 03:24:46;;;;;;;18.20;7.43;;;7.70;27.70;9.10;101423.00;;;;5017234;28;20521;-80
2021/03/31 03:27:17;;;;;;;13.23;8.97;;;7.60;27.40;9.10;101424.00;;;;5009414;28;20460;-80
2021/03/31 03:29:46;;;;;;;10.50;7.03;;;7.60;27.90;9.10;101422.00;;;;5015596;28;20471;-82
2021/03/31 03:32:14;;;;;;;14.70;7.03;;;7.50;28.50;9.00;101436.00;;;;5008669;28;20564;-80
2021/03/31 03:34:43;;;;;;;8.23;6.77;;;7.40;29.40;8.90;101426.00;;;;5034461;28;20474;-80
2021/03/31 03:37:10;;;;;;;10.40;7.73;;;7.30;29.00;8.90;101413.00;;;;5018164;28;21448;-81
2021/03/31 03:39:38;;;;;;;11.87;8.20;;;7.30;28.60;8.90;101416.00;;;;5040138;28;20484;-85
2021/03/31 03:42:08;;;;;;;14.97;7.77;;;7.30;28.80;8.90;101415.00;;;;5042770;28;20465;-81
2021/03/31 03:44:37;;;;;;;13.70;7.67;;;7.40;29.10;8.90;101400.00;;;;5025487;28;20951;-82
2021/03/31 03:47:06;;;;;;;17.13;8.20;;;7.50;29.10;8.90;101433.00;;;;5025375;28;20484;-81
2021/03/31 03:49:37;;;;;;;10.37;7.03;;;7.40;29.10;8.90;101410.00;;;;5009546;28;20450;-81
2021/03/31 03:52:06;;;;;;;12.90;7.30;;;7.40;29.60;8.80;101418.00;;;;5028275;28;20558;-81
2021/03/31 03:54:34;;;;;;;8.67;7.60;;;7.30;30.00;8.80;101418.00;;;;5018732;28;20474;-82
2021/03/31 03:57:02;;;;;;;11.77;7.00;;;7.10;30.50;8.70;101416.00;;;;5017797;28;20831;-82
2021/03/31 03:59:30;;;;;;;12.23;7.07;;;7.00;31.20;8.60;101425.00;;;;5019626;28;20503;-82
2021/03/31 04:01:58;;;;;;;9.93;7.07;;;7.00;31.50;8.70;101429.00;;;;5034133;28;20560;-83
2021/03/31 04:04:27;;;;;;;12.73;7.23;;;7.10;31.80;8.60;101409.00;;;;5018352;28;20452;-81
2021/03/31 04:06:59;;;;;;;14.03;7.10;;;7.10;32.10;8.60;101416.00;;;;5024844;28;20889;-81
2021/03/31 04:09:26;;;;;;;11.87;7.40;;;6.90;32.30;8.60;101431.00;;;;5019410;28;20455;-80
2021/03/31 04:11:55;;;;;;;14.03;8.57;;;6.90;33.10;8.50;68140.00;;;;5017089;28;20849;-81
2021/03/31 04:14:23;;;;;;;14.87;7.60;;;6.80;33.60;8.40;101428.00;;;;5027542;28;21050;-80
2021/03/31 04:16:52;;;;;;;19.27;7.97;;;6.80;33.90;8.30;101431.00;;;;5037000;28;20461;-82
2021/03/31 04:19:21;;;;;;;12.50;6.90;;;6.70;35.20;8.30;101425.00;;;;5018910;28;20491;-81
2021/03/31 04:21:48;;;;;;;10.90;7.07;;;6.70;35.20;8.30;101418.00;;;;5024664;28;20560;-80
2021/03/31 04:24:16;;;;;;;11.37;6.57;;;6.70;34.70;8.30;101430.00;;;;5031204;28;20456;-80
2021/03/31 04:26:46;;;;;;;17.90;7.33;;;6.80;33.60;8.30;101417.00;;;;5039211;28;20460;-82
2021/03/31 04:29:14;;;;;;;13.77;6.90;;;6.90;32.90;8.30;101417.00;;;;5041670;28;20429;-82
2021/03/31 04:31:42;;;;;;;13.50;7.20;;;6.90;32.50;8.30;101409.00;;;;5048025;28;20538;-84
2021/03/31 04:34:11;;;;;;;17.00;7.70;;;6.90;33.10;8.30;68098.00;;;;5022778;28;20449;-81
2021/03/31 04:36:39;;;;;;;11.20;8.50;;;6.80;32.80;8.30;101420.00;;;;5026699;28;20523;-83
2021/03/31 04:39:07;;;;;;;10.57;7.70;;;6.90;32.90;8.40;101406.00;;;;5013181;28;20544;-81
2021/03/31 04:41:35;;;;;;;11.67;7.37;;;6.90;33.10;8.40;101415.00;;;;5027792;28;20481;-85
2021/03/31 04:44:04;;;;;;;11.40;7.47;;;6.90;33.30;8.40;101398.00;;;;5047319;28;20477;-85
2021/03/31 04:46:31;;;;;;;10.67;7.50;;;6.90;32.50;8.40;101396.00;;;;5037092;28;20473;-84
2021/03/31 04:48:59;;;;;;;11.93;8.10;;;7.00;32.40;8.40;101414.00;;;;5020636;28;20897;-79
2021/03/31 04:51:26;;;;;;;9.67;7.83;;;7.00;32.20;8.50;101408.00;;;;5018420;28;20834;-82
2021/03/31 04:53:55;;;;;;;12.20;7.50;;;7.00;32.70;8.50;101405.00;;;;5020173;28;20832;-80
2021/03/31 04:56:22;;;;;;;10.90;7.63;;;7.00;32.80;8.50;101404.00;;;;5018114;28;20457;-80
2021/03/31 04:58:51;;;;;;;10.97;7.10;;;7.00;32.40;8.50;101405.00;;;;5018743;28;20458;-83
2021/03/31 05:01:18;;;;;;;10.70;7.33;;;7.00;31.80;8.50;101394.00;;;;5014375;28;20558;-80
2021/03/31 05:03:46;;;;;;;14.70;8.30;;;7.00;31.80;8.50;101393.00;;;;5016708;28;20472;-80
2021/03/31 05:06:13;;;;;;;17.73;8.40;;;7.00;32.10;217.30;160329.00;;;;5016860;28;20453;-82
2021/03/31 05:08:40;;;;;;;11.43;7.70;;;7.00;32.30;8.50;101386.00;;;;5018557;28;20453;-80
2021/03/31 05:11:09;;;;;;;17.87;8.10;;;7.00;32.90;8.50;101385.00;;;;5021954;28;20452;-83
2021/03/31 05:13:38;;;;;;;14.77;8.33;;;7.00;32.90;8.50;68135.00;;;;5025563;28;20462;-79
2021/03/31 05:16:06;;;;;;;15.63;8.27;;;6.90;33.20;8.40;101392.00;;;;5016190;28;20481;-80
2021/03/31 05:18:34;;;;;;;17.77;8.67;;;6.90;33.60;8.40;101392.00;;;;5033240;28;20961;-85
2021/03/31 05:21:03;;;;;;;23.87;9.37;;;6.80;33.90;8.40;101393.00;;;;5032626;28;20449;-80
2021/03/31 05:23:30;;;;;;;17.63;9.40;;;6.70;33.80;8.40;101393.00;;;;5020609;28;20459;-80
2021/03/31 05:25:58;;;;;;;14.90;8.60;;;6.70;34.30;8.40;101385.00;;;;5018078;28;20457;-82
2021/03/31 05:28:26;;;;;;;18.07;9.57;;;6.70;34.70;8.30;101401.00;;;;5019535;28;21038;-81
2021/03/31 05:30:53;;;;;;;17.83;9.20;;;6.60;35.00;8.30;101395.00;;;;5007066;28;20489;-83
2021/03/31 05:33:21;;;;;;;12.97;8.10;;;6.70;34.60;8.40;101401.00;;;;5016923;28;20461;-81
2021/03/31 05:35:48;;;;;;;11.13;7.83;;;6.80;33.90;8.30;101411.00;;;;5017910;28;20561;-81
2021/03/31 05:38:16;;;;;;;13.97;8.27;;;6.80;33.30;8.40;101412.00;;;;5021430;28;20544;-81
2021/03/31 05:40:43;;;;;;;14.07;8.00;;;6.90;32.30;8.40;101390.00;;;;5020709;28;20507;-80
2021/03/31 05:43:11;;;;;;;11.50;7.47;;;7.00;32.20;8.50;101399.00;;;;5021075;28;21134;-80
2021/03/31 05:45:40;;;;;;;20.67;8.57;;;7.00;30.80;217.30;160329.00;;;;5021526;28;20463;-80
2021/03/31 05:48:10;;;;;;;20.23;8.20;;;7.10;31.00;8.60;101396.00;;;;5022266;28;20885;-81
2021/03/31 05:50:38;;;;;;;24.47;9.77;;;7.10;31.40;8.70;101377.00;;;;5021246;28;21223;-82
2021/03/31 05:53:06;;;;;;;18.60;8.80;;;7.20;32.20;8.70;101377.00;;;;5021066;28;20856;-82
2021/03/31 05:55:34;;;;;;;30.03;9.07;;;7.30;31.20;8.80;101386.00;;;;5028111;28;20468;-84
2021/03/31 05:58:03;;;;;;;19.40;10.40;;;7.30;31.00;8.90;68229.00;;;;5039182;28;21070;-85
2021/03/31 06:00:32;;;;;;;23.73;9.23;;;7.30;30.60;9.00;101396.00;;;;5020842;28;20453;-85
2021/03/31 06:03:04;;;;;;;24.57;9.17;;;7.40;30.70;9.10;101385.00;;;;5045416;28;20481;-82
2021/03/31 06:05:32;;;;;;;18.43;9.93;;;7.50;30.00;9.10;101393.00;;;;5037445;28;20457;-82
2021/03/31 06:08:04;;;;;;;24.70;9.47;;;7.50;30.00;9.20;101388.00;;;;5030264;28;20469;-82
2021/03/31 06:10:32;;;;;;;24.50;8.37;;;7.60;29.70;9.30;101386.00;;;;5036005;28;20456;-84
2021/03/31 06:13:02;;;;;;;22.20;9.27;;;7.70;29.30;9.50;101391.00;;;;5036061;28;20473;-82
2021/03/31 06:15:38;;;;;;;23.27;9.60;;;7.90;28.70;9.60;101397.00;;;;5036282;28;20479;-83
2021/03/31 06:18:14;;;;;;;26.47;9.60;;;8.00;28.20;9.80;101388.00;;;;5028241;28;20532;-82
2021/03/31 06:20:55;;;;;;;19.50;10.73;;;8.10;27.90;9.90;101403.00;;;;5032892;28;20467;-80
2021/03/31 06:23:46;;;;;;;21.43;9.70;;;8.20;27.20;10.00;101389.00;;;;5030470;28;20818;-80
2021/03/31 06:26:23;;;;;;;20.23;9.43;;;8.40;26.30;10.20;101396.00;;;;5031148;28;20450;-81
2021/03/31 06:29:00;;;;;;;24.53;8.20;;;8.60;25.70;10.30;101396.00;;;;5027714;28;20512;-82
2021/03/31 06:31:39;;;;;;;18.63;9.87;;;8.70;24.90;10.40;101405.00;;;;5034625;28;20452;-85
2021/03/31 06:34:14;;;;;;;18.83;9.17;;;8.90;24.20;10.60;101393.00;;;;5046678;28;20487;-83
2021/03/31 06:36:43;;;;;;;28.63;10.10;;;9.00;23.30;10.70;101389.00;;;;5033515;28;20510;-80
2021/03/31 06:39:23;;;;;;;20.87;10.30;;;9.10;22.70;10.80;101390.00;;;;5034178;28;20453;-81
2021/03/31 06:41:55;;;;;;;30.53;10.00;;;9.30;22.40;10.90;101387.00;;;;5039357;28;20485;-80
2021/03/31 06:47:23;;;;;;;26.83;9.93;;;9.60;21.00;11.20;101385.00;;;;5012866;28;20528;-80
2021/03/31 06:49:52;;;;;;;18.13;9.20;;;9.70;19.70;11.30;101391.00;;;;5039140;28;20510;-84
2021/03/31 06:52:20;;;;;;;25.27;10.33;;;9.90;18.20;11.40;101384.00;;;;5018675;28;20469;-84
2021/03/31 06:54:50;;;;;;;19.67;9.53;;;10.00;16.30;11.50;101395.00;;;;5032573;28;20538;-81
2021/03/31 06:57:28;;;;;;;32.10;11.17;;;10.10;16.10;11.60;101405.00;;;;5044057;28;20945;-81
2021/03/31 07:00:08;;;;;;;23.73;11.40;;;10.30;16.10;11.80;101389.00;;;;5028927;28;20488;-82
2021/03/31 07:02:40;;;;;;;23.73;9.43;;;10.40;14.60;11.80;101400.00;;;;5030711;28;20559;-81
2021/03/31 07:05:13;;;;;;;19.07;8.43;;;10.60;13.40;11.90;101386.00;;;;5030456;28;20473;-82
2021/03/31 07:07:42;;;;;;;19.30;8.83;;;10.70;11.70;12.00;101396.00;;;;5021346;28;20446;-82
2021/03/31 07:10:13;;;;;;;10.43;7.80;;;10.80;10.90;12.10;101377.00;;;;5023458;28;20540;-83
2021/03/31 07:12:44;;;;;;;21.03;9.63;;;11.00;10.70;12.30;101390.00;;;;5027653;28;20469;-81
2021/03/31 07:15:14;;;;;;;14.47;7.90;;;11.10;10.80;12.40;101388.00;;;;5022902;28;20477;-81
2021/03/31 07:17:46;;;;;;;16.50;7.77;;;11.20;10.80;12.50;101385.00;;;;5011475;28;20595;-82
2021/03/31 07:20:15;;;;;;;13.57;7.70;;;11.20;10.20;12.60;101378.00;;;;5043729;28;20955;-82
2021/03/31 07:22:43;;;;;;;15.07;7.90;;;11.40;8.60;12.60;101387.00;;;;5029608;28;20484;-82
2021/03/31 07:25:13;;;;;;;14.20;8.03;;;11.50;7.40;12.70;101383.00;;;;5055963;28;20465;-83
2021/03/31 07:27:44;;;;;;;15.77;8.60;;;11.60;6.90;12.80;101382.00;;;;5036053;28;20449;-85
2021/03/31 07:30:17;;;;;;;12.40;8.00;;;11.70;6.90;12.80;101384.00;;;;5037449;28;20449;-85
2021/03/31 07:33:12;;;;;;;12.03;8.30;;;11.80;5.70;13.00;101391.00;;;;5038332;28;20548;-83
2021/03/31 07:35:42;;;;;;;12.83;8.37;;;12.00;5.60;13.10;101389.00;;;;5026711;28;20500;-84
2021/03/31 07:38:13;;;;;;;12.53;7.97;;;12.10;4.40;13.20;101394.00;;;;5050207;28;20450;-85
2021/03/31 07:40:43;;;;;;;10.63;8.53;;;12.20;3.90;13.30;101396.00;;;;5034777;28;20445;-82
2021/03/31 07:43:15;;;;;;;10.63;7.60;;;12.20;3.00;13.30;101376.00;;;;5029712;28;20488;-83
2021/03/31 07:45:45;;;;;;;10.73;8.20;;;12.30;2.50;13.40;101383.00;;;;5033503;28;20458;-85
2021/03/31 07:48:14;;;;;;;12.83;8.03;;;12.40;2.40;13.50;101385.00;;;;5033915;28;20969;-83
2021/03/31 07:50:44;;;;;;;17.43;9.33;;;12.50;2.00;13.60;101385.00;;;;5040253;28;20472;-82
2021/03/31 07:53:14;;;;;;;12.50;8.90;;;12.50;1.90;13.60;101390.00;;;;5038603;28;20477;-83
2021/03/31 07:55:44;;;;;;;13.30;8.70;;;12.70;1.30;13.80;101385.00;;;;5025625;28;20537;-84
2021/03/31 07:58:28;;;;;;;11.90;9.57;;;12.90;1.80;13.90;101388.00;;;;5039924;28;20537;-84
2021/03/31 08:01:03;;;;;;;10.47;8.50;;;12.90;2.00;13.90;101397.00;;;;5040030;28;20468;-81
2021/03/31 08:03:33;;;;;;;10.97;8.57;;;13.00;1.10;14.10;101387.00;;;;5023574;28;20446;-81
2021/03/31 08:06:22;;;;;;;13.07;9.10;;;13.10;1.90;14.20;101387.00;;;;5030258;28;21204;-82
2021/03/31 08:09:01;;;;;;;13.10;9.43;;;13.30;1.00;14.30;101388.00;;;;5032598;28;20513;-84
2021/03/31 08:11:49;;;;;;;19.27;11.13;;;13.40;1.00;14.40;101389.00;;;;5039874;28;20475;-83
2021/03/31 08:14:34;;;;;;;22.27;14.23;;;13.50;1.00;14.50;101387.00;;;;5038323;28;20453;-83
2021/03/31 08:17:06;;;;;;;14.93;9.63;;;13.60;1.00;14.60;101388.00;;;;5040855;28;20472;-84
2021/03/31 08:19:39;;;;;;;13.90;10.10;;;13.70;1.00;14.80;101381.00;;;;5055880;28;20441;-82
2021/03/31 08:22:39;;;;;;;20.90;11.10;;;13.90;1.00;14.90;101383.00;;;;5060241;28;20481;-81
2021/03/31 08:25:25;;;;;;;14.30;11.03;;;14.00;1.00;15.00;101387.00;;;;5036212;28;20473;-82
2021/03/31 08:28:04;;;;;;;17.50;11.07;;;14.10;1.00;15.10;101385.00;;;;5047008;28;20464;-80
2021/03/31 08:30:35;;;;;;;19.50;11.30;;;14.20;1.00;15.10;101381.00;;;;5046002;28;20461;-80
2021/03/31 08:33:03;;;;;;;15.87;9.97;;;14.30;1.00;15.20;101381.00;;;;5044592;28;20477;-82
2021/03/31 08:35:33;;;;;;;14.77;9.60;;;14.40;1.00;15.30;101369.00;;;;5047208;28;20994;-82
2021/03/31 08:38:14;;;;;;;13.00;10.03;;;14.50;1.00;15.40;101376.00;;;;5042791;28;20455;-82
2021/03/31 08:40:42;;;;;;;12.43;10.33;;;14.60;1.00;15.50;101364.00;;;;5045351;28;20445;-82
2021/03/31 08:43:11;;;;;;;16.97;9.73;;;14.70;1.00;15.60;101376.00;;;;5053811;28;20473;-82
2021/03/31 08:45:41;;;;;;;13.80;10.20;;;14.90;1.00;15.70;101371.00;;;;5051438;28;20512;-80
2021/03/31 08:48:10;;;;;;;18.40;10.20;;;14.90;1.00;15.80;101372.00;;;;5042336;28;20471;-82
2021/03/31 08:50:40;;;;;;;16.13;10.43;;;15.10;1.00;15.90;101373.00;;;;5047310;28;20461;-82
2021/03/31 08:53:12;;;;;;;21.40;11.00;;;15.20;1.00;16.00;101371.00;;;;5041207;28;20537;-82
2021/03/31 08:55:42;;;;;;;20.93;11.20;;;15.50;1.00;16.10;101381.00;;;;5029423;28;20550;-82
2021/03/31 08:58:11;;;;;;;17.80;13.07;;;15.60;1.00;16.20;101371.00;;;;5049722;28;20460;-82
2021/03/31 09:00:50;;;;;;;15.60;11.90;;;15.60;1.00;16.30;101364.00;;;;5042731;28;20457;-82
2021/03/31 09:03:18;;;;;;;17.83;11.70;;;15.70;1.00;16.40;101352.00;;;;5045756;28;20478;-81
2021/03/31 09:05:58;;;;;;;17.75;12.25;;;15.90;1.00;16.70;101352.00;;;;5026472;28;20459;-82
2021/03/31 09:08:29;;;;;;;19.13;13.27;;;16.10;1.00;16.90;101362.00;;;;5055479;28;20419;-82
2021/03/31 09:11:01;;;;;;;18.93;12.37;;;16.20;1.00;17.00;101347.00;;;;5027488;28;20417;-83
2021/03/31 09:13:32;;;;;;;22.15;13.10;;;16.50;1.00;17.20;101347.00;;;;5043957;28;20429;-81
2021/03/31 09:16:02;;;;;;;23.52;13.27;;;16.70;1.00;17.30;101331.00;;;;5037986;28;20436;-83
2021/03/31 09:18:30;;;;;;;22.60;14.48;;;16.80;1.00;17.40;101340.00;;;;5038430;28;20412;-81
2021/03/31 09:20:58;;;;;;;24.02;14.10;;;17.00;1.00;217.30;164249.00;;;;5037527;28;20419;-80
2021/03/31 09:23:27;;;;;;;23.95;13.82;;;17.10;1.00;17.60;70184.00;;;;5050705;28;20512;-82
2021/03/31 09:25:57;;;;;;;23.27;13.80;;;17.20;1.00;17.80;101331.00;;;;5029090;28;20429;-82
2021/03/31 09:28:25;;;;;;;19.20;13.60;;;17.40;1.00;17.70;101339.00;;;;5056662;28;20444;-81
2021/03/31 09:30:56;;;;;;;23.23;14.00;;;17.50;1.00;17.80;101324.00;;;;5041253;28;20435;-82
2021/03/31 09:33:31;;;;;;;19.63;14.40;;;17.60;1.00;18.00;101331.00;;;;5036757;28;20681;-82
2021/03/31 09:36:22;;;;;;;22.70;14.83;;;17.70;1.00;18.00;101333.00;;;;5037854;28;20194;-82
2021/03/31 09:39:13;;;;;;;24.30;13.03;;;17.70;1.00;18.10;101327.00;;;;5055989;28;20449;-81
2021/03/31 09:41:44;;;;;;;26.47;15.20;;;17.80;1.00;18.10;101327.00;;;;5047696;28;20461;-81
2021/03/31 09:44:15;;;;;;;20.60;15.53;;;17.90;1.00;18.30;101333.00;;;;5048728;28;20444;-84
2021/03/31 09:46:43;;;;;;;23.73;15.93;;;18.00;1.00;18.40;101316.00;;;;5027867;28;20457;-81
2021/03/31 09:49:12;;;;;;;26.37;16.20;;;18.20;1.00;18.50;101324.00;;;;5037698;28;20457;-84
2021/03/31 09:51:40;;;;;;;22.17;15.57;;;18.30;1.00;18.60;101324.00;;;;5034497;28;20482;-84
2021/03/31 09:54:08;;;;;;;20.43;15.03;;;18.40;1.00;18.60;101318.00;;;;5053808;28;20453;-86
2021/03/31 09:56:37;;;;;;;20.33;15.38;;;18.50;1.00;18.90;101320.00;;;;5049681;28;20477;-82
2021/03/31 09:59:05;;;;;;;20.80;13.83;;;18.70;1.00;19.00;101323.00;;;;5047619;28;20220;-83
2021/03/31 10:01:32;;;;;;;18.60;14.50;;;18.70;1.00;19.00;101310.00;;;;5041279;28;20474;-83
2021/03/31 10:04:02;;;;;;;21.63;14.27;;;18.70;1.00;19.10;101322.00;;;;5060182;28;20776;-85
2021/03/31 10:06:32;;;;;;;21.33;14.53;;;18.80;1.00;19.10;101308.00;;;;5058620;28;20494;-82
2021/03/31 10:09:03;;;;;;;18.23;14.23;;;18.90;1.00;19.20;101299.00;;;;5043065;28;20463;-84
2021/03/31 10:11:35;;;;;;;21.17;14.93;;;19.00;1.00;19.30;101301.00;;;;5056485;28;20472;-85
2021/03/31 10:14:06;;;;;;;20.03;14.00;;;19.10;1.00;19.40;101300.00;;;;5056429;28;20445;-85
2021/03/31 10:16:36;;;;;;;19.27;15.70;;;19.20;1.00;19.70;101303.00;;;;5055749;28;20429;-85
2021/03/31 10:19:06;;;;;;;19.87;14.40;;;19.50;1.00;19.80;101288.00;;;;5049265;28;20207;-85
2021/03/31 10:21:36;;;;;;;21.27;14.50;;;19.70;1.00;19.80;101301.00;;;;5046697;28;20483;-82
2021/03/31 10:24:06;;;;;;;26.30;18.50;;;19.80;1.00;19.90;101284.00;;;;5017403;28;20461;-82
2021/03/31 10:26:50;;;;;;;21.70;14.13;;;19.80;1.00;20.00;101284.00;;;;5031491;28;20454;-83
2021/03/31 10:29:31;;;;;;;21.83;13.90;;;19.90;1.00;20.10;101289.00;;;;5050380;28;20448;-83
2021/03/31 10:32:22;;;;;;;20.03;14.47;;;20.20;1.00;20.20;101295.00;;;;5024914;28;20578;-82
2021/03/31 10:34:53;;;;;;;19.90;14.10;;;20.30;1.00;20.30;101284.00;;;;5024620;28;20457;-86
2021/03/31 10:37:28;;;;;;;20.33;14.10;;;20.20;1.00;20.40;101288.00;;;;5037410;28;20468;-80
2021/03/31 10:40:18;;;;;;;19.10;14.60;;;20.20;1.00;20.50;101285.00;;;;5035625;28;20457;-84
2021/03/31 10:49:04;;;;;;;19.60;14.47;;;20.80;1.00;20.90;101265.00;;;;5044641;28;20466;-82
2021/03/31 10:51:41;;;;;;;20.50;14.50;;;20.90;1.00;21.00;101261.00;;;;5023918;28;20492;-83
2021/03/31 10:54:13;;;;;;;22.17;13.50;;;20.90;1.00;21.10;101254.00;;;;5027872;28;20473;-86
2021/03/31 10:56:50;;;;;;;22.03;13.90;;;21.00;1.00;21.10;101252.00;;;;5028957;28;20966;-82
2021/03/31 10:59:17;;;;;;;18.33;14.50;;;21.10;1.00;21.30;101253.00;;;;5026315;28;20529;-84
2021/03/31 11:01:46;;;;;;;18.80;14.10;;;21.20;1.00;21.30;101239.00;;;;5027568;28;20496;-84
2021/03/31 11:04:14;;;;;;;19.73;14.90;;;21.30;1.00;21.40;101238.00;;;;5034639;28;20459;-84
2021/03/31 11:06:41;;;;;;;17.80;13.67;;;21.30;1.00;21.50;101239.00;;;;5027419;28;20470;-86
2021/03/31 11:09:10;;;;;;;18.50;13.97;;;21.50;1.00;21.50;101238.00;;;;5038764;28;20458;-86
2021/03/31 11:11:41;;;;;;;23.50;13.33;;;21.50;1.00;21.60;101219.00;;;;5042486;28;20476;-83
2021/03/31 11:14:09;;;;;;;18.77;13.60;;;21.60;1.00;21.70;101229.00;;;;5030674;28;20440;-85
2021/03/31 11:16:41;;;;;;;22.90;14.30;;;21.70;1.00;21.90;101239.00;;;;5031469;28;20576;-83